createdAt,value
2019-02-03T00:02:16.744Z,73.04
2019-02-03T00:04:46.534Z,73.11
2019-02-03T00:07:15.922Z,73.80
2019-02-03T00:09:45.599Z,74.16
2019-02-03T00:12:15.236Z,74.38
2019-02-03T00:14:44.818Z,74.51
2019-02-03T00:17:14.624Z,74.52
2019-02-03T00:19:44.239Z,74.70
2019-02-03T00:22:13.646Z,74.54
2019-02-03T00:24:43.022Z,74.61
2019-02-03T00:27:12.863Z,74.44
2019-02-03T00:29:44.204Z,74.39
2019-02-03T00:32:14.015Z,74.33
2019-02-03T00:34:43.315Z,74.67
2019-02-03T00:37:15.763Z,74.65
2019-02-03T00:39:44.584Z,74.24
2019-02-03T00:42:14.095Z,74.24
2019-02-03T00:44:43.844Z,74.21
2019-02-03T00:47:12.883Z,74.47
2019-02-03T00:49:42.523Z,74.66
2019-02-03T00:52:14.253Z,74.52
2019-02-03T00:54:43.985Z,74.60
2019-02-03T00:57:13.656Z,74.72
2019-02-03T00:59:43.409Z,74.47
2019-02-03T01:02:13.223Z,74.00
2019-02-03T01:04:43.339Z,74.21
2019-02-03T01:07:13.174Z,74.25
2019-02-03T01:09:43.060Z,74.03
2019-02-03T01:12:12.814Z,73.96
2019-02-03T01:14:44.083Z,74.11
2019-02-03T01:17:13.934Z,74.06
2019-02-03T01:19:43.554Z,74.16
2019-02-03T01:22:19.650Z,74.05
2019-02-03T01:24:49.206Z,74.14
2019-02-03T01:27:19.066Z,74.11
2019-02-03T01:29:48.954Z,74.18
2019-02-03T01:32:18.679Z,74.48
2019-02-03T01:34:48.511Z,74.26
2019-02-03T01:37:18.343Z,74.39
2019-02-03T01:39:48.098Z,74.62
2019-02-03T01:42:17.672Z,74.51
2019-02-03T01:44:47.632Z,74.52
2019-02-03T01:47:17.250Z,74.80
2019-02-03T01:49:47.025Z,74.70
2019-02-03T01:52:16.390Z,74.99
2019-02-03T01:54:46.164Z,74.99
2019-02-03T01:57:16.050Z,75.07
2019-02-03T01:59:45.453Z,74.81
2019-02-03T02:02:14.755Z,74.92
2019-02-03T02:04:44.338Z,75.06
2019-02-03T02:07:14.057Z,74.94
2019-02-03T02:09:43.679Z,75.14
2019-02-03T02:12:13.293Z,75.18
2019-02-03T02:14:42.998Z,75.22
2019-02-03T02:17:12.572Z,75.39
2019-02-03T02:19:42.395Z,75.44
2019-02-03T02:22:12.241Z,75.23
2019-02-03T02:24:42.316Z,75.48
2019-02-03T02:27:11.930Z,75.47
2019-02-03T02:29:41.253Z,75.93
2019-02-03T02:32:10.569Z,75.79
2019-02-03T02:34:40.204Z,75.07
2019-02-03T02:37:09.841Z,75.60
2019-02-03T02:39:39.583Z,76.12
2019-02-03T02:42:09.183Z,76.05
2019-02-03T02:44:38.986Z,76.05
2019-02-03T02:47:08.663Z,76.05
2019-02-03T02:49:38.405Z,75.99
2019-02-03T02:52:08.219Z,75.98
2019-02-03T02:54:37.854Z,75.95
2019-02-03T02:57:07.426Z,75.85
2019-02-03T02:59:37.244Z,76.14
2019-02-03T03:02:06.872Z,76.11
2019-02-03T03:04:36.377Z,75.83
2019-02-03T03:07:06.118Z,75.86
2019-02-03T03:09:36.368Z,76.10
2019-02-03T03:12:06.089Z,76.19
2019-02-03T03:14:35.796Z,76.40
2019-02-03T03:17:05.477Z,76.55
2019-02-03T03:19:34.687Z,76.56
2019-02-03T03:22:04.477Z,76.95
2019-02-03T03:24:34.008Z,76.79
2019-02-03T03:27:03.521Z,76.69
